Hilo International Airport Hilo US
ICAO: PHTO
IATA: ITO
Category: Medium
Scheduled Services:

Elevation: 38 ft
TransAlt. 18000 ft.

Airport Communications:
APP/DEP:119.7
ATIS:126.4
CTAF:118.1
GND:121.9
HONOLULU RDO:122.6
TWR:118.1

PHTO Zoom In..

If you have problems with the map follow the link
https://www.worldairports.se/pages/airport.php?
ICAO=PHTO

Runways:

(A) RW 03 length 5600 ft width 150 ft
---- / hdg 30

(B) RW 08 length 9800 ft width 150 ft
---- / hdg 79

(C) RW 21 length 5600 ft width 150 ft
---- / hdg 210

(D) RW 26 length 9800 ft width 150 ft
ILS 110.70 / hdg 259

Location; PHTO
Day. 21 / Time. 08.19 Zulu
* Altimeter: 29.97
* Temperature: 22° c. 71.6°f.
* Wind from: 230° Speed 04 kn.
Dewpoint: 21° c.
Visibility: 10 Statute Miles.
Clouds: Scattered 2600 ft.
Clouds: Broken 6000 ft.

PHTO 210819Z AUTO 23004KT 10SM SCT026 BKN060 22/21 A2997 RMK AO2 T02220206 TSNO


Wind From 230°
Speed 04 kn.

 
 
jpsmedia.com for Web Design worldairports.se 2018   terms of use